sensor_id;sensor_type;location;lat;lon;timestamp;temperature;humidity
21261;DHT22;10788;47.930;9.766;2022-10-31T00:01:38;11.00;99.90
21261;DHT22;10788;47.930;9.766;2022-10-31T00:04:05;10.90;99.90
21261;DHT22;10788;47.930;9.766;2022-10-31T00:06:30;10.90;99.90
21261;DHT22;10788;47.930;9.766;2022-10-31T00:09:01;11.00;99.90
21261;DHT22;10788;47.930;9.766;2022-10-31T00:11:27;10.90;99.90
21261;DHT22;10788;47.930;9.766;2022-10-31T00:13:53;10.90;99.90
21261;DHT22;10788;47.930;9.766;2022-10-31T00:16:24;10.80;99.90
21261;DHT22;10788;47.930;9.766;2022-10-31T00:18:55;10.80;99.90
21261;DHT22;10788;47.930;9.766;2022-10-31T00:21:21;10.70;99.90
21261;DHT22;10788;47.930;9.766;2022-10-31T00:23:47;10.70;99.90
21261;DHT22;10788;47.930;9.766;2022-10-31T00:26:13;10.70;99.90
21261;DHT22;10788;47.930;9.766;2022-10-31T00:28:38;10.70;99.90
21261;DHT22;10788;47.930;9.766;2022-10-31T00:31:06;10.80;99.90
21261;DHT22;10788;47.930;9.766;2022-10-31T00:33:36;10.70;99.90
21261;DHT22;10788;47.930;9.766;2022-10-31T00:36:04;10.70;99.90
21261;DHT22;10788;47.930;9.766;2022-10-31T00:38:29;10.70;99.90
21261;DHT22;10788;47.930;9.766;2022-10-31T00:40:55;10.70;99.90
21261;DHT22;10788;47.930;9.766;2022-10-31T00:43:21;10.70;99.90
21261;DHT22;10788;47.930;9.766;2022-10-31T00:45:46;10.70;99.90
21261;DHT22;10788;47.930;9.766;2022-10-31T00:48:12;10.70;99.90
21261;DHT22;10788;47.930;9.766;2022-10-31T00:50:38;10.50;99.90
21261;DHT22;10788;47.930;9.766;2022-10-31T00:53:04;10.60;99.90
21261;DHT22;10788;47.930;9.766;2022-10-31T00:55:30;10.60;99.90
21261;DHT22;10788;47.930;9.766;2022-10-31T00:57:56;10.50;99.90
21261;DHT22;10788;47.930;9.766;2022-10-31T01:00:21;10.50;99.90
21261;DHT22;10788;47.930;9.766;2022-10-31T01:02:47;10.50;99.90
21261;DHT22;10788;47.930;9.766;2022-10-31T01:05:13;10.50;99.90
21261;DHT22;10788;47.930;9.766;2022-10-31T01:07:39;10.50;99.90
21261;DHT22;10788;47.930;9.766;2022-10-31T01:10:06;10.50;99.90
21261;DHT22;10788;47.930;9.766;2022-10-31T01:12:45;10.50;99.90
21261;DHT22;10788;47.930;9.766;2022-10-31T01:15:12;10.50;99.90
21261;DHT22;10788;47.930;9.766;2022-10-31T01:17:38;10.50;99.90
21261;DHT22;10788;47.930;9.766;2022-10-31T01:20:05;10.50;99.90
21261;DHT22;10788;47.930;9.766;2022-10-31T01:22:31;10.50;99.90
21261;DHT22;10788;47.930;9.766;2022-10-31T01:24:57;10.40;99.90
21261;DHT22;10788;47.930;9.766;2022-10-31T01:27:22;10.40;99.90
21261;DHT22;10788;47.930;9.766;2022-10-31T01:29:48;10.40;99.90
21261;DHT22;10788;47.930;9.766;2022-10-31T01:32:14;10.40;99.90
21261;DHT22;10788;47.930;9.766;2022-10-31T01:34:40;10.40;99.90
21261;DHT22;10788;47.930;9.766;2022-10-31T01:37:05;10.30;99.90
21261;DHT22;10788;47.930;9.766;2022-10-31T01:39:31;10.30;99.90
21261;DHT22;10788;47.930;9.766;2022-10-31T01:41:56;10.40;99.90
21261;DHT22;10788;47.930;9.766;2022-10-31T01:46:58;10.30;99.90
21261;DHT22;10788;47.930;9.766;2022-10-31T01:49:41;10.30;99.90
21261;DHT22;10788;47.930;9.766;2022-10-31T01:52:31;10.30;99.90
21261;DHT22;10788;47.930;9.766;2022-10-31T01:55:20;10.30;99.90
21261;DHT22;10788;47.930;9.766;2022-10-31T01:57:48;10.20;99.90
21261;DHT22;10788;47.930;9.766;2022-10-31T02:00:17;10.10;99.90
21261;DHT22;10788;47.930;9.766;2022-10-31T02:02:45;10.20;99.90
21261;DHT22;10788;47.930;9.766;2022-10-31T02:05:16;10.20;99.90
21261;DHT22;10788;47.930;9.766;2022-10-31T02:10:27;10.00;99.90
21261;DHT22;10788;47.930;9.766;2022-10-31T02:12:54;10.00;99.90
21261;DHT22;10788;47.930;9.766;2022-10-31T02:15:22;10.00;99.90
21261;DHT22;10788;47.930;9.766;2022-10-31T02:17:47;9.90;99.90
21261;DHT22;10788;47.930;9.766;2022-10-31T02:20:16;9.90;99.90
21261;DHT22;10788;47.930;9.766;2022-10-31T02:26:06;9.80;99.90
21261;DHT22;10788;47.930;9.766;2022-10-31T02:33:55;9.80;99.90
21261;DHT22;10788;47.930;9.766;2022-10-31T02:36:43;9.70;99.90
21261;DHT22;10788;47.930;9.766;2022-10-31T02:41:49;9.70;99.90
21261;DHT22;10788;47.930;9.766;2022-10-31T02:44:38;9.70;99.90
21261;DHT22;10788;47.930;9.766;2022-10-31T02:47:27;9.70;99.90
21261;DHT22;10788;47.930;9.766;2022-10-31T02:50:00;9.70;99.90
21261;DHT22;10788;47.930;9.766;2022-10-31T02:52:30;9.70;99.90
21261;DHT22;10788;47.930;9.766;2022-10-31T02:54:56;9.70;99.90
21261;DHT22;10788;47.930;9.766;2022-10-31T02:57:30;9.50;99.90
21261;DHT22;10788;47.930;9.766;2022-10-31T03:00:06;9.60;99.90
21261;DHT22;10788;47.930;9.766;2022-10-31T03:11:08;9.50;99.90
21261;DHT22;10788;47.930;9.766;2022-10-31T03:13:45;9.40;99.90
21261;DHT22;10788;47.930;9.766;2022-10-31T03:16:32;9.40;99.90
21261;DHT22;10788;47.930;9.766;2022-10-31T03:19:09;9.40;99.90
21261;DHT22;10788;47.930;9.766;2022-10-31T03:21:45;9.40;99.90
21261;DHT22;10788;47.930;9.766;2022-10-31T03:24:12;9.30;99.90
21261;DHT22;10788;47.930;9.766;2022-10-31T03:26:43;9.30;99.90
21261;DHT22;10788;47.930;9.766;2022-10-31T03:29:13;9.30;99.90
21261;DHT22;10788;47.930;9.766;2022-10-31T03:31:45;9.30;99.90
21261;DHT22;10788;47.930;9.766;2022-10-31T03:34:12;9.30;99.90
21261;DHT22;10788;47.930;9.766;2022-10-31T03:36:40;9.40;99.90
21261;DHT22;10788;47.930;9.766;2022-10-31T03:39:08;9.30;99.90
21261;DHT22;10788;47.930;9.766;2022-10-31T03:41:40;9.30;99.90
21261;DHT22;10788;47.930;9.766;2022-10-31T03:44:11;9.20;99.90
21261;DHT22;10788;47.930;9.766;2022-10-31T03:46:39;9.20;99.90
21261;DHT22;10788;47.930;9.766;2022-10-31T03:49:05;9.20;99.90
21261;DHT22;10788;47.930;9.766;2022-10-31T03:51:39;9.20;99.90
21261;DHT22;10788;47.930;9.766;2022-10-31T03:54:24;9.10;99.90
21261;DHT22;10788;47.930;9.766;2022-10-31T03:56:57;9.20;99.90
21261;DHT22;10788;47.930;9.766;2022-10-31T03:59:37;9.20;99.90
21261;DHT22;10788;47.930;9.766;2022-10-31T04:02:13;9.30;99.90
21261;DHT22;10788;47.930;9.766;2022-10-31T04:04:40;9.30;99.90
21261;DHT22;10788;47.930;9.766;2022-10-31T04:07:08;9.30;99.90
21261;DHT22;10788;47.930;9.766;2022-10-31T04:09:37;9.30;99.90
21261;DHT22;10788;47.930;9.766;2022-10-31T04:12:07;9.30;99.90
21261;DHT22;10788;47.930;9.766;2022-10-31T04:14:36;9.20;99.90
21261;DHT22;10788;47.930;9.766;2022-10-31T04:17:06;9.30;99.90
21261;DHT22;10788;47.930;9.766;2022-10-31T04:19:33;9.20;99.90
21261;DHT22;10788;47.930;9.766;2022-10-31T04:21:59;9.20;99.90
21261;DHT22;10788;47.930;9.766;2022-10-31T04:24:25;9.10;99.90
21261;DHT22;10788;47.930;9.766;2022-10-31T04:26:50;9.10;99.90
21261;DHT22;10788;47.930;9.766;2022-10-31T04:29:16;9.10;99.90
21261;DHT22;10788;47.930;9.766;2022-10-31T04:31:41;9.10;99.90
21261;DHT22;10788;47.930;9.766;2022-10-31T04:34:07;9.00;99.90
21261;DHT22;10788;47.930;9.766;2022-10-31T04:36:33;9.00;99.90
21261;DHT22;10788;47.930;9.766;2022-10-31T04:38:58;9.00;99.90
21261;DHT22;10788;47.930;9.766;2022-10-31T04:41:24;8.90;99.90
21261;DHT22;10788;47.930;9.766;2022-10-31T04:43:49;9.00;99.90
21261;DHT22;10788;47.930;9.766;2022-10-31T04:46:15;8.90;99.90
21261;DHT22;10788;47.930;9.766;2022-10-31T04:48:41;8.90;99.90
21261;DHT22;10788;47.930;9.766;2022-10-31T04:51:06;8.90;99.90
21261;DHT22;10788;47.930;9.766;2022-10-31T04:53:32;8.90;99.90
21261;DHT22;10788;47.930;9.766;2022-10-31T04:55:58;9.00;99.90
21261;DHT22;10788;47.930;9.766;2022-10-31T04:58:26;8.90;99.90
21261;DHT22;10788;47.930;9.766;2022-10-31T05:00:53;8.90;99.90
21261;DHT22;10788;47.930;9.766;2022-10-31T05:03:19;8.90;99.90
21261;DHT22;10788;47.930;9.766;2022-10-31T05:05:44;8.90;99.90
21261;DHT22;10788;47.930;9.766;2022-10-31T05:08:10;8.90;99.90
21261;DHT22;10788;47.930;9.766;2022-10-31T05:10:36;8.90;99.90
21261;DHT22;10788;47.930;9.766;2022-10-31T05:13:03;8.80;99.90
21261;DHT22;10788;47.930;9.766;2022-10-31T05:15:30;8.90;99.90
21261;DHT22;10788;47.930;9.766;2022-10-31T05:17:56;8.90;99.90
21261;DHT22;10788;47.930;9.766;2022-10-31T05:20:24;8.80;99.90
21261;DHT22;10788;47.930;9.766;2022-10-31T05:22:52;8.80;99.90
21261;DHT22;10788;47.930;9.766;2022-10-31T05:25:19;8.80;99.90
21261;DHT22;10788;47.930;9.766;2022-10-31T05:27:47;8.80;99.90
21261;DHT22;10788;47.930;9.766;2022-10-31T05:30:15;8.80;99.90
21261;DHT22;10788;47.930;9.766;2022-10-31T05:32:46;8.80;99.90
21261;DHT22;10788;47.930;9.766;2022-10-31T05:35:14;8.80;99.90
21261;DHT22;10788;47.930;9.766;2022-10-31T05:37:40;8.80;99.90
21261;DHT22;10788;47.930;9.766;2022-10-31T05:40:08;8.80;99.90
21261;DHT22;10788;47.930;9.766;2022-10-31T05:42:34;8.70;99.90
21261;DHT22;10788;47.930;9.766;2022-10-31T05:45:00;8.70;99.90
21261;DHT22;10788;47.930;9.766;2022-10-31T05:47:25;8.80;99.90
21261;DHT22;10788;47.930;9.766;2022-10-31T05:49:51;8.70;99.90
21261;DHT22;10788;47.930;9.766;2022-10-31T05:52:17;8.80;99.90
21261;DHT22;10788;47.930;9.766;2022-10-31T05:54:43;8.70;99.90
21261;DHT22;10788;47.930;9.766;2022-10-31T05:57:09;8.80;99.90
21261;DHT22;10788;47.930;9.766;2022-10-31T05:59:34;8.70;99.90
21261;DHT22;10788;47.930;9.766;2022-10-31T06:02:00;8.70;99.90
21261;DHT22;10788;47.930;9.766;2022-10-31T06:04:26;8.70;99.90
21261;DHT22;10788;47.930;9.766;2022-10-31T06:06:51;8.70;99.90
21261;DHT22;10788;47.930;9.766;2022-10-31T06:09:17;8.70;99.90
21261;DHT22;10788;47.930;9.766;2022-10-31T06:11:42;8.70;99.90
21261;DHT22;10788;47.930;9.766;2022-10-31T06:14:08;8.70;99.90
21261;DHT22;10788;47.930;9.766;2022-10-31T06:16:34;8.70;99.90
21261;DHT22;10788;47.930;9.766;2022-10-31T06:18:59;8.70;99.90
21261;DHT22;10788;47.930;9.766;2022-10-31T06:21:25;8.70;99.90
21261;DHT22;10788;47.930;9.766;2022-10-31T06:23:50;8.70;99.90
21261;DHT22;10788;47.930;9.766;2022-10-31T06:26:16;8.70;99.90
21261;DHT22;10788;47.930;9.766;2022-10-31T06:28:42;8.70;99.90
21261;DHT22;10788;47.930;9.766;2022-10-31T06:31:07;8.70;99.90
21261;DHT22;10788;47.930;9.766;2022-10-31T06:33:33;8.80;99.90
21261;DHT22;10788;47.930;9.766;2022-10-31T06:35:59;8.70;99.90
21261;DHT22;10788;47.930;9.766;2022-10-31T06:38:26;8.80;99.90
21261;DHT22;10788;47.930;9.766;2022-10-31T06:40:52;8.80;99.90
21261;DHT22;10788;47.930;9.766;2022-10-31T06:43:18;8.80;99.90
21261;DHT22;10788;47.930;9.766;2022-10-31T06:48:19;8.90;99.90
21261;DHT22;10788;47.930;9.766;2022-10-31T06:50:44;8.90;99.90
21261;DHT22;10788;47.930;9.766;2022-10-31T06:53:10;9.00;99.90
21261;DHT22;10788;47.930;9.766;2022-10-31T06:55:36;9.00;99.90
21261;DHT22;10788;47.930;9.766;2022-10-31T06:58:01;9.00;99.90
21261;DHT22;10788;47.930;9.766;2022-10-31T07:00:29;9.10;99.90
21261;DHT22;10788;47.930;9.766;2022-10-31T07:03:01;9.20;99.90
21261;DHT22;10788;47.930;9.766;2022-10-31T07:05:28;9.30;99.90
21261;DHT22;10788;47.930;9.766;2022-10-31T07:07:56;9.30;99.90
21261;DHT22;10788;47.930;9.766;2022-10-31T07:10:23;9.50;99.90
21261;DHT22;10788;47.930;9.766;2022-10-31T07:13:00;9.40;99.90
21261;DHT22;10788;47.930;9.766;2022-10-31T07:15:28;9.50;99.90
21261;DHT22;10788;47.930;9.766;2022-10-31T07:17:54;9.60;99.90
21261;DHT22;10788;47.930;9.766;2022-10-31T07:20:24;9.70;99.90
21261;DHT22;10788;47.930;9.766;2022-10-31T07:22:50;9.70;99.90
21261;DHT22;10788;47.930;9.766;2022-10-31T07:25:15;9.90;99.90
21261;DHT22;10788;47.930;9.766;2022-10-31T07:27:42;10.10;99.90
21261;DHT22;10788;47.930;9.766;2022-10-31T07:30:10;10.40;99.90
21261;DHT22;10788;47.930;9.766;2022-10-31T07:32:43;10.70;99.90
21261;DHT22;10788;47.930;9.766;2022-10-31T07:35:30;11.10;99.90
21261;DHT22;10788;47.930;9.766;2022-10-31T07:37:56;11.30;99.90
21261;DHT22;10788;47.930;9.766;2022-10-31T07:40:23;11.60;99.90
21261;DHT22;10788;47.930;9.766;2022-10-31T07:42:51;11.90;99.90
21261;DHT22;10788;47.930;9.766;2022-10-31T07:45:19;12.20;99.90
21261;DHT22;10788;47.930;9.766;2022-10-31T07:47:50;12.40;99.90
21261;DHT22;10788;47.930;9.766;2022-10-31T07:50:19;12.70;99.90
21261;DHT22;10788;47.930;9.766;2022-10-31T07:52:45;13.00;99.90
21261;DHT22;10788;47.930;9.766;2022-10-31T07:55:11;13.20;99.90
21261;DHT22;10788;47.930;9.766;2022-10-31T07:57:37;13.30;99.90
21261;DHT22;10788;47.930;9.766;2022-10-31T08:00:07;13.40;99.90
21261;DHT22;10788;47.930;9.766;2022-10-31T08:02:33;13.60;99.90
21261;DHT22;10788;47.930;9.766;2022-10-31T08:04:58;13.80;99.90
21261;DHT22;10788;47.930;9.766;2022-10-31T08:07:25;13.90;99.90
21261;DHT22;10788;47.930;9.766;2022-10-31T08:09:51;14.00;99.90
21261;DHT22;10788;47.930;9.766;2022-10-31T08:12:17;14.20;99.90
21261;DHT22;10788;47.930;9.766;2022-10-31T08:14:43;14.20;99.90
21261;DHT22;10788;47.930;9.766;2022-10-31T08:17:10;14.40;99.90
21261;DHT22;10788;47.930;9.766;2022-10-31T08:19:35;14.50;99.90
21261;DHT22;10788;47.930;9.766;2022-10-31T08:22:01;14.40;99.90
21261;DHT22;10788;47.930;9.766;2022-10-31T08:24:26;14.40;99.90
21261;DHT22;10788;47.930;9.766;2022-10-31T08:26:52;14.50;99.90
21261;DHT22;10788;47.930;9.766;2022-10-31T08:29:18;14.50;99.90
21261;DHT22;10788;47.930;9.766;2022-10-31T08:31:43;14.50;99.90
21261;DHT22;10788;47.930;9.766;2022-10-31T08:34:09;14.50;99.90
21261;DHT22;10788;47.930;9.766;2022-10-31T08:36:34;14.60;99.90
21261;DHT22;10788;47.930;9.766;2022-10-31T08:39:01;14.70;99.90
21261;DHT22;10788;47.930;9.766;2022-10-31T08:41:27;14.70;99.90
21261;DHT22;10788;47.930;9.766;2022-10-31T08:43:52;14.80;99.90
21261;DHT22;10788;47.930;9.766;2022-10-31T08:46:18;14.80;99.90
21261;DHT22;10788;47.930;9.766;2022-10-31T08:48:44;14.90;99.90
21261;DHT22;10788;47.930;9.766;2022-10-31T08:51:10;14.90;99.90
21261;DHT22;10788;47.930;9.766;2022-10-31T08:53:36;14.90;99.90
21261;DHT22;10788;47.930;9.766;2022-10-31T08:56:02;14.90;99.90
21261;DHT22;10788;47.930;9.766;2022-10-31T08:58:28;14.90;99.90
21261;DHT22;10788;47.930;9.766;2022-10-31T09:00:54;14.90;99.90
21261;DHT22;10788;47.930;9.766;2022-10-31T09:03:26;15.00;99.90
21261;DHT22;10788;47.930;9.766;2022-10-31T09:05:56;14.90;99.90
21261;DHT22;10788;47.930;9.766;2022-10-31T09:08:22;14.90;99.90
21261;DHT22;10788;47.930;9.766;2022-10-31T09:10:47;15.00;99.90
21261;DHT22;10788;47.930;9.766;2022-10-31T09:13:15;15.10;99.90
21261;DHT22;10788;47.930;9.766;2022-10-31T09:15:44;15.10;99.90
21261;DHT22;10788;47.930;9.766;2022-10-31T09:18:11;15.30;99.90
21261;DHT22;10788;47.930;9.766;2022-10-31T09:20:38;15.50;99.90
21261;DHT22;10788;47.930;9.766;2022-10-31T09:23:12;15.60;99.90
21261;DHT22;10788;47.930;9.766;2022-10-31T09:25:38;15.70;99.90
21261;DHT22;10788;47.930;9.766;2022-10-31T09:28:05;15.70;99.90
21261;DHT22;10788;47.930;9.766;2022-10-31T09:30:32;15.90;99.90
21261;DHT22;10788;47.930;9.766;2022-10-31T09:33:03;15.80;99.90
21261;DHT22;10788;47.930;9.766;2022-10-31T09:35:29;15.80;99.90
21261;DHT22;10788;47.930;9.766;2022-10-31T09:37:59;15.80;99.90
21261;DHT22;10788;47.930;9.766;2022-10-31T09:40:43;15.80;99.90
21261;DHT22;10788;47.930;9.766;2022-10-31T09:43:38;15.80;99.90
21261;DHT22;10788;47.930;9.766;2022-10-31T09:46:18;15.80;99.90
21261;DHT22;10788;47.930;9.766;2022-10-31T09:51:44;15.70;99.90
21261;DHT22;10788;47.930;9.766;2022-10-31T09:54:39;15.70;99.90
21261;DHT22;10788;47.930;9.766;2022-10-31T09:57:12;15.70;99.90
21261;DHT22;10788;47.930;9.766;2022-10-31T09:59:40;15.60;99.90
21261;DHT22;10788;47.930;9.766;2022-10-31T10:02:38;15.70;99.90
21261;DHT22;10788;47.930;9.766;2022-10-31T10:05:37;15.70;99.90
21261;DHT22;10788;47.930;9.766;2022-10-31T10:08:20;15.70;99.90
21261;DHT22;10788;47.930;9.766;2022-10-31T10:22:10;16.00;99.90
21261;DHT22;10788;47.930;9.766;2022-10-31T10:30:46;16.20;99.90
21261;DHT22;10788;47.930;9.766;2022-10-31T10:36:01;16.50;99.90
21261;DHT22;10788;47.930;9.766;2022-10-31T10:38:34;16.50;99.90
21261;DHT22;10788;47.930;9.766;2022-10-31T10:41:05;16.60;99.90
21261;DHT22;10788;47.930;9.766;2022-10-31T10:43:35;16.70;99.90
21261;DHT22;10788;47.930;9.766;2022-10-31T11:00:22;16.80;99.90
21261;DHT22;10788;47.930;9.766;2022-10-31T11:02:49;16.90;99.90
21261;DHT22;10788;47.930;9.766;2022-10-31T11:07:45;17.00;99.90
21261;DHT22;10788;47.930;9.766;2022-10-31T11:10:15;17.10;99.90
21261;DHT22;10788;47.930;9.766;2022-10-31T11:12:43;17.10;99.90
21261;DHT22;10788;47.930;9.766;2022-10-31T11:15:20;17.20;99.90
21261;DHT22;10788;47.930;9.766;2022-10-31T11:17:49;17.30;99.90
21261;DHT22;10788;47.930;9.766;2022-10-31T11:22:46;17.50;99.90
21261;DHT22;10788;47.930;9.766;2022-10-31T11:25:25;17.60;99.90
21261;DHT22;10788;47.930;9.766;2022-10-31T11:28:10;17.60;99.90
21261;DHT22;10788;47.930;9.766;2022-10-31T11:30:47;17.70;99.90
21261;DHT22;10788;47.930;9.766;2022-10-31T11:33:21;17.70;99.90
21261;DHT22;10788;47.930;9.766;2022-10-31T11:35:49;17.80;99.90
21261;DHT22;10788;47.930;9.766;2022-10-31T11:38:21;17.90;99.90
21261;DHT22;10788;47.930;9.766;2022-10-31T11:40:53;17.90;99.90
21261;DHT22;10788;47.930;9.766;2022-10-31T11:43:19;18.00;99.90
21261;DHT22;10788;47.930;9.766;2022-10-31T11:45:45;18.10;99.90
21261;DHT22;10788;47.930;9.766;2022-10-31T11:48:18;18.20;99.90
21261;DHT22;10788;47.930;9.766;2022-10-31T11:50:49;18.20;99.90
21261;DHT22;10788;47.930;9.766;2022-10-31T11:53:26;18.30;99.90
21261;DHT22;10788;47.930;9.766;2022-10-31T11:56:12;18.30;99.90
21261;DHT22;10788;47.930;9.766;2022-10-31T11:58:38;18.30;99.90
21261;DHT22;10788;47.930;9.766;2022-10-31T12:01:04;18.40;99.90
21261;DHT22;10788;47.930;9.766;2022-10-31T12:06:32;18.50;99.90
21261;DHT22;10788;47.930;9.766;2022-10-31T12:08:59;18.50;99.90
21261;DHT22;10788;47.930;9.766;2022-10-31T12:14:17;18.50;99.90
21261;DHT22;10788;47.930;9.766;2022-10-31T12:19:24;18.40;99.90
21261;DHT22;10788;47.930;9.766;2022-10-31T12:25:14;18.40;99.90
21261;DHT22;10788;47.930;9.766;2022-10-31T12:30:52;20.30;99.90
21261;DHT22;10788;47.930;9.766;2022-10-31T12:41:36;19.40;99.90
21261;DHT22;10788;47.930;9.766;2022-10-31T12:44:25;19.20;99.90
21261;DHT22;10788;47.930;9.766;2022-10-31T12:47:00;18.90;99.90
21261;DHT22;10788;47.930;9.766;2022-10-31T12:52:12;18.60;99.90
21261;DHT22;10788;47.930;9.766;2022-10-31T12:55:09;18.50;99.90
21261;DHT22;10788;47.930;9.766;2022-10-31T12:57:44;18.40;99.90
21261;DHT22;10788;47.930;9.766;2022-10-31T13:00:18;18.30;99.90
21261;DHT22;10788;47.930;9.766;2022-10-31T13:03:14;18.30;99.90
21261;DHT22;10788;47.930;9.766;2022-10-31T13:05:43;18.30;99.90
21261;DHT22;10788;47.930;9.766;2022-10-31T13:08:19;18.20;99.90
21261;DHT22;10788;47.930;9.766;2022-10-31T13:11:05;18.20;99.90
21261;DHT22;10788;47.930;9.766;2022-10-31T13:13:42;18.20;99.90
21261;DHT22;10788;47.930;9.766;2022-10-31T13:16:17;18.10;99.90
21261;DHT22;10788;47.930;9.766;2022-10-31T13:21:22;18.00;99.90
21261;DHT22;10788;47.930;9.766;2022-10-31T13:23:51;18.00;99.90
21261;DHT22;10788;47.930;9.766;2022-10-31T13:26:45;18.00;99.90
21261;DHT22;10788;47.930;9.766;2022-10-31T13:29:27;17.90;99.90
21261;DHT22;10788;47.930;9.766;2022-10-31T13:31:54;17.90;99.90
21261;DHT22;10788;47.930;9.766;2022-10-31T13:34:42;17.90;99.90
21261;DHT22;10788;47.930;9.766;2022-10-31T13:40:24;17.90;99.90
21261;DHT22;10788;47.930;9.766;2022-10-31T13:45:31;17.90;99.90
21261;DHT22;10788;47.930;9.766;2022-10-31T13:50:42;18.10;99.90
21261;DHT22;10788;47.930;9.766;2022-10-31T13:55:47;17.90;99.90
21261;DHT22;10788;47.930;9.766;2022-10-31T13:58:30;17.90;99.90
21261;DHT22;10788;47.930;9.766;2022-10-31T14:03:38;17.90;99.90
21261;DHT22;10788;47.930;9.766;2022-10-31T14:06:05;17.80;99.90
21261;DHT22;10788;47.930;9.766;2022-10-31T14:08:34;17.80;99.90
21261;DHT22;10788;47.930;9.766;2022-10-31T14:11:00;17.80;99.90
21261;DHT22;10788;47.930;9.766;2022-10-31T14:16:04;17.80;99.90
21261;DHT22;10788;47.930;9.766;2022-10-31T14:18:37;17.80;99.90
21261;DHT22;10788;47.930;9.766;2022-10-31T14:23:52;17.80;99.90
21261;DHT22;10788;47.930;9.766;2022-10-31T14:28:54;17.80;99.90
21261;DHT22;10788;47.930;9.766;2022-10-31T14:31:36;17.80;99.90
21261;DHT22;10788;47.930;9.766;2022-10-31T14:39:26;17.70;99.90
21261;DHT22;10788;47.930;9.766;2022-10-31T14:53:04;17.50;99.90
21261;DHT22;10788;47.930;9.766;2022-10-31T14:55:31;17.40;99.90
21261;DHT22;10788;47.930;9.766;2022-10-31T14:58:04;17.40;99.90
21261;DHT22;10788;47.930;9.766;2022-10-31T15:00:32;17.30;99.90
21261;DHT22;10788;47.930;9.766;2022-10-31T15:05:55;17.20;99.90
21261;DHT22;10788;47.930;9.766;2022-10-31T15:08:44;17.20;99.90
21261;DHT22;10788;47.930;9.766;2022-10-31T15:11:24;17.20;99.90
21261;DHT22;10788;47.930;9.766;2022-10-31T15:13:58;17.10;99.90
21261;DHT22;10788;47.930;9.766;2022-10-31T15:16:34;17.10;99.90
21261;DHT22;10788;47.930;9.766;2022-10-31T15:19:05;17.10;99.90
21261;DHT22;10788;47.930;9.766;2022-10-31T15:21:32;17.00;99.90
21261;DHT22;10788;47.930;9.766;2022-10-31T15:24:00;17.00;99.90
21261;DHT22;10788;47.930;9.766;2022-10-31T15:26:31;17.00;99.90
21261;DHT22;10788;47.930;9.766;2022-10-31T15:28:59;16.90;99.90
21261;DHT22;10788;47.930;9.766;2022-10-31T15:31:25;16.90;99.90
21261;DHT22;10788;47.930;9.766;2022-10-31T15:33:52;16.80;99.90
21261;DHT22;10788;47.930;9.766;2022-10-31T15:36:24;16.80;99.90
21261;DHT22;10788;47.930;9.766;2022-10-31T15:38:51;16.70;99.90
21261;DHT22;10788;47.930;9.766;2022-10-31T15:41:52;16.70;99.90
21261;DHT22;10788;47.930;9.766;2022-10-31T15:51:52;16.50;99.90
21261;DHT22;10788;47.930;9.766;2022-10-31T15:54:18;16.50;99.90
21261;DHT22;10788;47.930;9.766;2022-10-31T15:56:43;16.40;99.90
21261;DHT22;10788;47.930;9.766;2022-10-31T15:59:19;16.30;99.90
21261;DHT22;10788;47.930;9.766;2022-10-31T16:01:58;16.30;99.90
21261;DHT22;10788;47.930;9.766;2022-10-31T16:04:25;16.20;99.90
21261;DHT22;10788;47.930;9.766;2022-10-31T16:07:10;16.10;99.90
21261;DHT22;10788;47.930;9.766;2022-10-31T16:09:37;16.00;99.90
21261;DHT22;10788;47.930;9.766;2022-10-31T16:12:03;15.80;99.90
21261;DHT22;10788;47.930;9.766;2022-10-31T16:14:31;15.70;99.90
21261;DHT22;10788;47.930;9.766;2022-10-31T16:16:59;15.70;99.90
21261;DHT22;10788;47.930;9.766;2022-10-31T16:19:37;15.60;99.90
21261;DHT22;10788;47.930;9.766;2022-10-31T16:22:13;15.50;99.90
21261;DHT22;10788;47.930;9.766;2022-10-31T16:24:53;15.50;99.90
21261;DHT22;10788;47.930;9.766;2022-10-31T16:27:26;15.40;99.90
21261;DHT22;10788;47.930;9.766;2022-10-31T16:29:57;15.40;99.90
21261;DHT22;10788;47.930;9.766;2022-10-31T16:32:51;15.30;99.90
21261;DHT22;10788;47.930;9.766;2022-10-31T16:35:26;15.30;99.90
21261;DHT22;10788;47.930;9.766;2022-10-31T16:37:52;15.20;99.90
21261;DHT22;10788;47.930;9.766;2022-10-31T16:40:17;15.10;99.90
21261;DHT22;10788;47.930;9.766;2022-10-31T16:42:44;15.00;99.90
21261;DHT22;10788;47.930;9.766;2022-10-31T16:45:22;15.00;99.90
21261;DHT22;10788;47.930;9.766;2022-10-31T16:47:49;15.00;99.90
21261;DHT22;10788;47.930;9.766;2022-10-31T16:52:43;14.90;99.90
21261;DHT22;10788;47.930;9.766;2022-10-31T16:55:14;14.80;99.90
21261;DHT22;10788;47.930;9.766;2022-10-31T16:57:43;14.70;99.90
21261;DHT22;10788;47.930;9.766;2022-10-31T17:00:13;14.60;99.90
21261;DHT22;10788;47.930;9.766;2022-10-31T17:02:39;14.60;99.90
21261;DHT22;10788;47.930;9.766;2022-10-31T17:05:05;14.50;99.90
21261;DHT22;10788;47.930;9.766;2022-10-31T17:07:33;14.40;99.90
21261;DHT22;10788;47.930;9.766;2022-10-31T17:09:59;14.40;99.90
21261;DHT22;10788;47.930;9.766;2022-10-31T17:12:26;14.30;99.90
21261;DHT22;10788;47.930;9.766;2022-10-31T17:14:51;14.20;99.90
21261;DHT22;10788;47.930;9.766;2022-10-31T17:17:17;14.20;99.90
21261;DHT22;10788;47.930;9.766;2022-10-31T17:19:43;14.10;99.90
21261;DHT22;10788;47.930;9.766;2022-10-31T17:22:11;14.10;99.90
21261;DHT22;10788;47.930;9.766;2022-10-31T17:24:37;14.00;99.90
21261;DHT22;10788;47.930;9.766;2022-10-31T17:27:03;14.10;99.90
21261;DHT22;10788;47.930;9.766;2022-10-31T17:29:28;14.10;99.90
21261;DHT22;10788;47.930;9.766;2022-10-31T17:31:54;14.10;99.90
21261;DHT22;10788;47.930;9.766;2022-10-31T17:34:20;14.00;99.90
21261;DHT22;10788;47.930;9.766;2022-10-31T17:36:49;13.90;99.90
21261;DHT22;10788;47.930;9.766;2022-10-31T17:39:15;13.80;99.90
21261;DHT22;10788;47.930;9.766;2022-10-31T17:41:41;13.80;99.90
21261;DHT22;10788;47.930;9.766;2022-10-31T17:44:09;13.70;99.90
21261;DHT22;10788;47.930;9.766;2022-10-31T17:46:35;13.80;99.90
21261;DHT22;10788;47.930;9.766;2022-10-31T17:49:00;13.70;99.90
21261;DHT22;10788;47.930;9.766;2022-10-31T17:51:26;13.80;99.90
21261;DHT22;10788;47.930;9.766;2022-10-31T17:53:52;13.70;99.90
21261;DHT22;10788;47.930;9.766;2022-10-31T17:56:17;13.60;99.90
21261;DHT22;10788;47.930;9.766;2022-10-31T17:58:43;13.50;99.90
21261;DHT22;10788;47.930;9.766;2022-10-31T18:01:10;13.50;99.90
21261;DHT22;10788;47.930;9.766;2022-10-31T18:03:36;13.50;99.90
21261;DHT22;10788;47.930;9.766;2022-10-31T18:06:02;13.40;99.90
21261;DHT22;10788;47.930;9.766;2022-10-31T18:08:31;13.40;99.90
21261;DHT22;10788;47.930;9.766;2022-10-31T18:10:57;13.20;99.90
21261;DHT22;10788;47.930;9.766;2022-10-31T18:13:27;13.00;99.90
21261;DHT22;10788;47.930;9.766;2022-10-31T18:15:53;12.90;99.90
21261;DHT22;10788;47.930;9.766;2022-10-31T18:18:19;12.90;99.90
21261;DHT22;10788;47.930;9.766;2022-10-31T18:20:44;12.90;99.90